sensor_id;sensor_type;location;lat;lon;timestamp;temperature;humidity
5899;DHT22;2975;50.956;6.962;2022-09-13T00:00:41;17.50;99.90
5899;DHT22;2975;50.956;6.962;2022-09-13T00:03:08;17.50;99.90
5899;DHT22;2975;50.956;6.962;2022-09-13T00:05:36;17.50;99.90
5899;DHT22;2975;50.956;6.962;2022-09-13T00:08:02;17.60;99.90
5899;DHT22;2975;50.956;6.962;2022-09-13T00:10:28;17.60;99.90
5899;DHT22;2975;50.956;6.962;2022-09-13T00:12:54;17.60;99.90
5899;DHT22;2975;50.956;6.962;2022-09-13T00:15:20;17.50;99.90
5899;DHT22;2975;50.956;6.962;2022-09-13T00:17:46;17.50;99.90
5899;DHT22;2975;50.956;6.962;2022-09-13T00:20:11;17.40;99.90
5899;DHT22;2975;50.956;6.962;2022-09-13T00:22:37;17.40;99.90
5899;DHT22;2975;50.956;6.962;2022-09-13T00:25:04;17.40;99.90
5899;DHT22;2975;50.956;6.962;2022-09-13T00:27:32;17.40;99.90
5899;DHT22;2975;50.956;6.962;2022-09-13T00:29:58;17.40;99.90
5899;DHT22;2975;50.956;6.962;2022-09-13T00:32:23;17.30;99.90
5899;DHT22;2975;50.956;6.962;2022-09-13T00:34:49;17.40;99.90
5899;DHT22;2975;50.956;6.962;2022-09-13T00:37:14;17.40;99.90
5899;DHT22;2975;50.956;6.962;2022-09-13T00:39:40;17.40;99.90
5899;DHT22;2975;50.956;6.962;2022-09-13T00:42:10;17.30;99.90
5899;DHT22;2975;50.956;6.962;2022-09-13T00:52:56;17.20;99.90
5899;DHT22;2975;50.956;6.962;2022-09-13T00:55:27;17.20;99.90
5899;DHT22;2975;50.956;6.962;2022-09-13T00:57:59;17.20;99.90
5899;DHT22;2975;50.956;6.962;2022-09-13T01:00:27;17.30;99.90
5899;DHT22;2975;50.956;6.962;2022-09-13T01:02:56;17.30;99.90
5899;DHT22;2975;50.956;6.962;2022-09-13T01:05:25;17.30;99.90
5899;DHT22;2975;50.956;6.962;2022-09-13T01:07:53;17.30;99.90
5899;DHT22;2975;50.956;6.962;2022-09-13T01:10:19;17.30;99.90
5899;DHT22;2975;50.956;6.962;2022-09-13T01:12:53;17.20;99.90
5899;DHT22;2975;50.956;6.962;2022-09-13T01:15:20;17.10;99.90
5899;DHT22;2975;50.956;6.962;2022-09-13T01:17:46;17.10;99.90
5899;DHT22;2975;50.956;6.962;2022-09-13T01:20:12;17.00;99.90
5899;DHT22;2975;50.956;6.962;2022-09-13T01:36:42;17.00;99.90
5899;DHT22;2975;50.956;6.962;2022-09-13T01:39:38;17.00;99.90
5899;DHT22;2975;50.956;6.962;2022-09-13T01:45:02;17.30;99.90
5899;DHT22;2975;50.956;6.962;2022-09-13T01:47:48;17.50;99.90
5899;DHT22;2975;50.956;6.962;2022-09-13T01:50:42;17.40;99.90
5899;DHT22;2975;50.956;6.962;2022-09-13T01:56:04;17.30;99.90
5899;DHT22;2975;50.956;6.962;2022-09-13T01:59:10;17.30;99.90
5899;DHT22;2975;50.956;6.962;2022-09-13T02:02:00;17.40;99.90
5899;DHT22;2975;50.956;6.962;2022-09-13T02:04:42;17.40;99.90
5899;DHT22;2975;50.956;6.962;2022-09-13T02:07:12;17.60;99.90
5899;DHT22;2975;50.956;6.962;2022-09-13T02:09:44;17.60;99.90
5899;DHT22;2975;50.956;6.962;2022-09-13T02:12:20;17.60;99.90
5899;DHT22;2975;50.956;6.962;2022-09-13T02:14:53;17.50;99.90
5899;DHT22;2975;50.956;6.962;2022-09-13T02:17:22;17.50;99.90
5899;DHT22;2975;50.956;6.962;2022-09-13T02:20:00;17.40;99.90
5899;DHT22;2975;50.956;6.962;2022-09-13T02:22:33;17.30;99.90
5899;DHT22;2975;50.956;6.962;2022-09-13T02:25:12;17.30;99.90
5899;DHT22;2975;50.956;6.962;2022-09-13T02:27:39;17.30;99.90
5899;DHT22;2975;50.956;6.962;2022-09-13T02:30:08;17.40;99.90
5899;DHT22;2975;50.956;6.962;2022-09-13T02:33:14;17.50;99.90
5899;DHT22;2975;50.956;6.962;2022-09-13T02:35:35;17.50;99.90
5899;DHT22;2975;50.956;6.962;2022-09-13T02:38:18;17.50;99.90
5899;DHT22;2975;50.956;6.962;2022-09-13T02:40:51;17.50;99.90
5899;DHT22;2975;50.956;6.962;2022-09-13T02:43:40;17.60;99.90
5899;DHT22;2975;50.956;6.962;2022-09-13T02:49:10;17.60;99.90
5899;DHT22;2975;50.956;6.962;2022-09-13T02:51:51;17.60;99.90
5899;DHT22;2975;50.956;6.962;2022-09-13T02:59:34;17.60;99.90
5899;DHT22;2975;50.956;6.962;2022-09-13T03:04:29;17.70;99.90
5899;DHT22;2975;50.956;6.962;2022-09-13T03:06:56;17.80;99.90
5899;DHT22;2975;50.956;6.962;2022-09-13T03:09:22;17.80;99.90
5899;DHT22;2975;50.956;6.962;2022-09-13T03:12:11;17.90;99.90
5899;DHT22;2975;50.956;6.962;2022-09-13T03:18:21;17.80;99.90
5899;DHT22;2975;50.956;6.962;2022-09-13T03:23:43;17.90;99.90
5899;DHT22;2975;50.956;6.962;2022-09-13T03:31:49;18.10;99.90
5899;DHT22;2975;50.956;6.962;2022-09-13T03:34:42;18.00;99.90
5899;DHT22;2975;50.956;6.962;2022-09-13T03:37:35;18.00;99.90
5899;DHT22;2975;50.956;6.962;2022-09-13T03:43:03;18.00;99.90
5899;DHT22;2975;50.956;6.962;2022-09-13T03:45:34;17.90;99.90
5899;DHT22;2975;50.956;6.962;2022-09-13T03:48:02;17.80;99.90
5899;DHT22;2975;50.956;6.962;2022-09-13T03:50:29;17.70;99.90
5899;DHT22;2975;50.956;6.962;2022-09-13T03:53:00;17.70;99.90
5899;DHT22;2975;50.956;6.962;2022-09-13T03:55:29;17.80;99.90
5899;DHT22;2975;50.956;6.962;2022-09-13T03:57:56;17.90;99.90
5899;DHT22;2975;50.956;6.962;2022-09-13T04:00:22;17.90;99.90
5899;DHT22;2975;50.956;6.962;2022-09-13T04:02:48;18.00;99.90
5899;DHT22;2975;50.956;6.962;2022-09-13T04:05:14;18.00;99.90
5899;DHT22;2975;50.956;6.962;2022-09-13T04:07:39;18.00;99.90
5899;DHT22;2975;50.956;6.962;2022-09-13T04:10:05;18.00;99.90
5899;DHT22;2975;50.956;6.962;2022-09-13T04:12:32;17.90;99.90
5899;DHT22;2975;50.956;6.962;2022-09-13T04:14:57;17.80;99.90
5899;DHT22;2975;50.956;6.962;2022-09-13T04:17:23;17.80;99.90
5899;DHT22;2975;50.956;6.962;2022-09-13T04:19:48;17.80;99.90
5899;DHT22;2975;50.956;6.962;2022-09-13T04:22:14;17.70;99.90
5899;DHT22;2975;50.956;6.962;2022-09-13T04:24:40;17.70;99.90
5899;DHT22;2975;50.956;6.962;2022-09-13T04:27:07;17.70;99.90
5899;DHT22;2975;50.956;6.962;2022-09-13T04:29:33;17.70;99.90
5899;DHT22;2975;50.956;6.962;2022-09-13T04:31:59;17.70;99.90
5899;DHT22;2975;50.956;6.962;2022-09-13T04:34:25;17.70;99.90
5899;DHT22;2975;50.956;6.962;2022-09-13T04:36:51;17.70;99.90
5899;DHT22;2975;50.956;6.962;2022-09-13T04:39:18;17.70;99.90
5899;DHT22;2975;50.956;6.962;2022-09-13T04:41:45;17.70;99.90
5899;DHT22;2975;50.956;6.962;2022-09-13T04:44:11;17.70;99.90
5899;DHT22;2975;50.956;6.962;2022-09-13T04:46:37;17.70;99.90
5899;DHT22;2975;50.956;6.962;2022-09-13T04:49:03;17.80;99.90
5899;DHT22;2975;50.956;6.962;2022-09-13T04:51:28;17.70;99.90
5899;DHT22;2975;50.956;6.962;2022-09-13T04:53:55;17.70;99.90
5899;DHT22;2975;50.956;6.962;2022-09-13T04:56:22;17.70;99.90
5899;DHT22;2975;50.956;6.962;2022-09-13T04:58:52;17.70;99.90
5899;DHT22;2975;50.956;6.962;2022-09-13T05:01:18;17.70;99.90
5899;DHT22;2975;50.956;6.962;2022-09-13T05:03:44;17.70;99.90
5899;DHT22;2975;50.956;6.962;2022-09-13T05:06:12;17.80;99.90
5899;DHT22;2975;50.956;6.962;2022-09-13T05:08:38;17.70;99.90
5899;DHT22;2975;50.956;6.962;2022-09-13T05:11:05;17.80;99.90
5899;DHT22;2975;50.956;6.962;2022-09-13T05:13:32;17.70;99.90
5899;DHT22;2975;50.956;6.962;2022-09-13T05:15:59;17.70;99.90
5899;DHT22;2975;50.956;6.962;2022-09-13T05:18:26;17.80;99.90
5899;DHT22;2975;50.956;6.962;2022-09-13T05:20:56;17.80;99.90
5899;DHT22;2975;50.956;6.962;2022-09-13T05:23:23;17.90;99.90
5899;DHT22;2975;50.956;6.962;2022-09-13T05:25:53;17.90;99.90
5899;DHT22;2975;50.956;6.962;2022-09-13T05:28:19;18.00;99.90
5899;DHT22;2975;50.956;6.962;2022-09-13T05:30:56;18.00;99.90
5899;DHT22;2975;50.956;6.962;2022-09-13T05:33:23;18.10;99.90
5899;DHT22;2975;50.956;6.962;2022-09-13T05:35:49;18.00;99.90
5899;DHT22;2975;50.956;6.962;2022-09-13T05:38:15;18.10;99.90
5899;DHT22;2975;50.956;6.962;2022-09-13T05:40:41;18.10;99.90
5899;DHT22;2975;50.956;6.962;2022-09-13T05:43:06;18.10;99.90
5899;DHT22;2975;50.956;6.962;2022-09-13T05:45:32;18.10;99.90
5899;DHT22;2975;50.956;6.962;2022-09-13T05:47:57;18.20;99.90
5899;DHT22;2975;50.956;6.962;2022-09-13T05:50:24;18.30;99.90
5899;DHT22;2975;50.956;6.962;2022-09-13T05:52:56;18.40;99.90
5899;DHT22;2975;50.956;6.962;2022-09-13T05:55:22;18.40;99.90
5899;DHT22;2975;50.956;6.962;2022-09-13T05:57:48;18.60;99.90
5899;DHT22;2975;50.956;6.962;2022-09-13T06:00:15;18.70;99.90
5899;DHT22;2975;50.956;6.962;2022-09-13T06:02:41;18.70;99.90
5899;DHT22;2975;50.956;6.962;2022-09-13T06:05:08;18.70;99.90
5899;DHT22;2975;50.956;6.962;2022-09-13T06:07:35;18.60;99.90
5899;DHT22;2975;50.956;6.962;2022-09-13T06:10:01;18.60;99.90
5899;DHT22;2975;50.956;6.962;2022-09-13T06:12:27;18.70;99.90
5899;DHT22;2975;50.956;6.962;2022-09-13T06:14:52;18.80;99.90
5899;DHT22;2975;50.956;6.962;2022-09-13T06:17:18;18.80;99.90
5899;DHT22;2975;50.956;6.962;2022-09-13T06:19:43;18.80;99.90
5899;DHT22;2975;50.956;6.962;2022-09-13T06:22:09;18.90;99.90
5899;DHT22;2975;50.956;6.962;2022-09-13T06:24:35;18.90;99.90
5899;DHT22;2975;50.956;6.962;2022-09-13T06:27:02;18.90;99.90
5899;DHT22;2975;50.956;6.962;2022-09-13T06:29:27;19.00;99.90
5899;DHT22;2975;50.956;6.962;2022-09-13T06:31:53;19.10;99.90
5899;DHT22;2975;50.956;6.962;2022-09-13T06:34:19;19.20;99.90
5899;DHT22;2975;50.956;6.962;2022-09-13T06:36:45;19.30;99.90
5899;DHT22;2975;50.956;6.962;2022-09-13T06:39:10;19.30;99.90
5899;DHT22;2975;50.956;6.962;2022-09-13T06:41:36;19.30;99.90
5899;DHT22;2975;50.956;6.962;2022-09-13T06:44:02;19.40;99.90
5899;DHT22;2975;50.956;6.962;2022-09-13T06:46:30;19.50;99.90
5899;DHT22;2975;50.956;6.962;2022-09-13T06:49:03;19.60;99.90
5899;DHT22;2975;50.956;6.962;2022-09-13T06:51:29;19.70;99.90
5899;DHT22;2975;50.956;6.962;2022-09-13T06:53:55;19.80;99.90
5899;DHT22;2975;50.956;6.962;2022-09-13T06:56:26;20.00;99.90
5899;DHT22;2975;50.956;6.962;2022-09-13T06:58:58;20.00;99.90
5899;DHT22;2975;50.956;6.962;2022-09-13T07:01:43;20.00;99.90
5899;DHT22;2975;50.956;6.962;2022-09-13T07:04:11;20.10;99.90
5899;DHT22;2975;50.956;6.962;2022-09-13T07:06:39;20.20;99.90
5899;DHT22;2975;50.956;6.962;2022-09-13T07:09:07;20.20;99.90
5899;DHT22;2975;50.956;6.962;2022-09-13T07:11:37;20.20;99.90
5899;DHT22;2975;50.956;6.962;2022-09-13T07:14:04;20.30;99.90
5899;DHT22;2975;50.956;6.962;2022-09-13T07:16:32;20.30;99.90
5899;DHT22;2975;50.956;6.962;2022-09-13T07:19:01;20.40;99.90
5899;DHT22;2975;50.956;6.962;2022-09-13T07:21:28;20.40;99.90
5899;DHT22;2975;50.956;6.962;2022-09-13T07:23:54;20.50;99.90
5899;DHT22;2975;50.956;6.962;2022-09-13T07:26:20;20.60;99.90
5899;DHT22;2975;50.956;6.962;2022-09-13T07:28:50;20.70;99.90
5899;DHT22;2975;50.956;6.962;2022-09-13T07:31:21;20.70;99.90
5899;DHT22;2975;50.956;6.962;2022-09-13T07:33:54;20.80;99.90
5899;DHT22;2975;50.956;6.962;2022-09-13T07:36:21;20.90;99.90
5899;DHT22;2975;50.956;6.962;2022-09-13T07:38:46;20.90;99.90
5899;DHT22;2975;50.956;6.962;2022-09-13T07:41:17;21.10;99.90
5899;DHT22;2975;50.956;6.962;2022-09-13T07:43:43;21.30;99.20
5899;DHT22;2975;50.956;6.962;2022-09-13T07:46:11;21.50;99.30
5899;DHT22;2975;50.956;6.962;2022-09-13T07:48:40;21.60;99.50
5899;DHT22;2975;50.956;6.962;2022-09-13T07:51:07;21.80;99.00
5899;DHT22;2975;50.956;6.962;2022-09-13T07:53:34;21.90;98.50
5899;DHT22;2975;50.956;6.962;2022-09-13T07:56:04;22.00;98.40
5899;DHT22;2975;50.956;6.962;2022-09-13T07:58:31;22.20;97.30
5899;DHT22;2975;50.956;6.962;2022-09-13T08:03:34;22.30;96.90
5899;DHT22;2975;50.956;6.962;2022-09-13T08:06:04;22.40;97.20
5899;DHT22;2975;50.956;6.962;2022-09-13T08:08:31;22.40;97.40
5899;DHT22;2975;50.956;6.962;2022-09-13T08:10:57;22.30;97.50
5899;DHT22;2975;50.956;6.962;2022-09-13T08:13:23;22.30;97.20
5899;DHT22;2975;50.956;6.962;2022-09-13T08:15:50;22.40;97.60
5899;DHT22;2975;50.956;6.962;2022-09-13T08:18:16;22.50;96.60
5899;DHT22;2975;50.956;6.962;2022-09-13T08:20:42;22.60;96.80
5899;DHT22;2975;50.956;6.962;2022-09-13T08:23:09;22.70;96.40
5899;DHT22;2975;50.956;6.962;2022-09-13T08:25:35;22.90;95.90
5899;DHT22;2975;50.956;6.962;2022-09-13T08:28:06;22.90;96.10
5899;DHT22;2975;50.956;6.962;2022-09-13T08:30:36;23.10;96.10
5899;DHT22;2975;50.956;6.962;2022-09-13T08:33:04;23.30;96.10
5899;DHT22;2975;50.956;6.962;2022-09-13T08:35:31;23.40;94.90
5899;DHT22;2975;50.956;6.962;2022-09-13T08:37:57;23.60;95.10
5899;DHT22;2975;50.956;6.962;2022-09-13T08:40:24;23.70;95.10
5899;DHT22;2975;50.956;6.962;2022-09-13T08:45:49;23.70;93.90
5899;DHT22;2975;50.956;6.962;2022-09-13T08:48:17;23.80;93.90
5899;DHT22;2975;50.956;6.962;2022-09-13T08:50:43;23.80;93.50
5899;DHT22;2975;50.956;6.962;2022-09-13T08:53:25;23.70;93.70
5899;DHT22;2975;50.956;6.962;2022-09-13T08:56:07;23.70;93.80
5899;DHT22;2975;50.956;6.962;2022-09-13T09:09:33;23.80;94.20
5899;DHT22;2975;50.956;6.962;2022-09-13T09:12:18;23.80;93.80
5899;DHT22;2975;50.956;6.962;2022-09-13T09:15:01;23.70;94.10
5899;DHT22;2975;50.956;6.962;2022-09-13T09:20:19;23.70;93.80
5899;DHT22;2975;50.956;6.962;2022-09-13T09:22:46;23.80;93.60
5899;DHT22;2975;50.956;6.962;2022-09-13T09:25:13;23.90;93.40
5899;DHT22;2975;50.956;6.962;2022-09-13T09:27:39;24.00;93.30
5899;DHT22;2975;50.956;6.962;2022-09-13T09:30:05;24.10;93.30
5899;DHT22;2975;50.956;6.962;2022-09-13T09:40:52;24.20;92.80
5899;DHT22;2975;50.956;6.962;2022-09-13T09:43:31;24.20;92.40
5899;DHT22;2975;50.956;6.962;2022-09-13T09:46:02;24.30;92.60
5899;DHT22;2975;50.956;6.962;2022-09-13T09:48:34;24.50;92.60
5899;DHT22;2975;50.956;6.962;2022-09-13T09:51:04;24.40;92.00
5899;DHT22;2975;50.956;6.962;2022-09-13T09:53:36;24.50;92.40
5899;DHT22;2975;50.956;6.962;2022-09-13T09:56:30;24.60;91.70
5899;DHT22;2975;50.956;6.962;2022-09-13T09:58:56;24.80;91.40
5899;DHT22;2975;50.956;6.962;2022-09-13T10:01:30;24.80;91.40
5899;DHT22;2975;50.956;6.962;2022-09-13T10:06:36;24.70;91.60
5899;DHT22;2975;50.956;6.962;2022-09-13T10:11:54;24.80;91.60
5899;DHT22;2975;50.956;6.962;2022-09-13T10:14:42;24.90;91.30
5899;DHT22;2975;50.956;6.962;2022-09-13T10:17:23;25.00;91.10
5899;DHT22;2975;50.956;6.962;2022-09-13T10:22:37;25.20;91.10
5899;DHT22;2975;50.956;6.962;2022-09-13T10:25:25;25.40;90.60
5899;DHT22;2975;50.956;6.962;2022-09-13T10:27:57;25.30;90.40
5899;DHT22;2975;50.956;6.962;2022-09-13T10:32:56;25.00;90.70
5899;DHT22;2975;50.956;6.962;2022-09-13T10:35:23;24.90;90.70
5899;DHT22;2975;50.956;6.962;2022-09-13T10:37:50;25.00;90.90
5899;DHT22;2975;50.956;6.962;2022-09-13T10:40:25;25.10;90.80
5899;DHT22;2975;50.956;6.962;2022-09-13T10:42:56;25.20;90.70
5899;DHT22;2975;50.956;6.962;2022-09-13T10:45:25;25.10;90.80
5899;DHT22;2975;50.956;6.962;2022-09-13T10:47:54;25.10;90.90
5899;DHT22;2975;50.956;6.962;2022-09-13T10:50:23;25.00;91.40
5899;DHT22;2975;50.956;6.962;2022-09-13T10:52:52;24.90;91.30
5899;DHT22;2975;50.956;6.962;2022-09-13T10:57:48;24.70;91.50
5899;DHT22;2975;50.956;6.962;2022-09-13T11:00:19;24.70;91.60
5899;DHT22;2975;50.956;6.962;2022-09-13T11:10:42;25.20;91.80
5899;DHT22;2975;50.956;6.962;2022-09-13T11:21:51;26.10;90.00
5899;DHT22;2975;50.956;6.962;2022-09-13T11:27:30;26.40;87.60
5899;DHT22;2975;50.956;6.962;2022-09-13T11:30:10;26.60;86.90
5899;DHT22;2975;50.956;6.962;2022-09-13T11:32:51;26.80;86.30
5899;DHT22;2975;50.956;6.962;2022-09-13T11:38:34;26.60;85.60
5899;DHT22;2975;50.956;6.962;2022-09-13T11:49:56;26.60;86.80
5899;DHT22;2975;50.956;6.962;2022-09-13T11:52:48;26.60;86.00
5899;DHT22;2975;50.956;6.962;2022-09-13T11:55:48;26.70;86.00
5899;DHT22;2975;50.956;6.962;2022-09-13T11:58:26;26.90;85.20
5899;DHT22;2975;50.956;6.962;2022-09-13T12:01:07;26.90;84.40
5899;DHT22;2975;50.956;6.962;2022-09-13T12:06:18;26.30;85.40
5899;DHT22;2975;50.956;6.962;2022-09-13T12:08:48;26.10;85.80
5899;DHT22;2975;50.956;6.962;2022-09-13T12:11:23;26.00;86.70
5899;DHT22;2975;50.956;6.962;2022-09-13T12:13:58;26.00;86.80
5899;DHT22;2975;50.956;6.962;2022-09-13T12:16:35;26.00;87.00
5899;DHT22;2975;50.956;6.962;2022-09-13T12:19:12;26.00;87.40
5899;DHT22;2975;50.956;6.962;2022-09-13T12:21:40;26.00;87.40
5899;DHT22;2975;50.956;6.962;2022-09-13T12:24:39;25.90;86.80
5899;DHT22;2975;50.956;6.962;2022-09-13T12:29:56;26.10;86.20
5899;DHT22;2975;50.956;6.962;2022-09-13T12:32:25;26.10;86.30
5899;DHT22;2975;50.956;6.962;2022-09-13T12:43:37;26.10;86.30
5899;DHT22;2975;50.956;6.962;2022-09-13T13:02:51;26.40;85.80
5899;DHT22;2975;50.956;6.962;2022-09-13T13:08:05;26.60;85.90
5899;DHT22;2975;50.956;6.962;2022-09-13T13:10:33;26.60;85.90
5899;DHT22;2975;50.956;6.962;2022-09-13T13:13:25;26.40;84.40
5899;DHT22;2975;50.956;6.962;2022-09-13T13:15:58;26.40;85.00
5899;DHT22;2975;50.956;6.962;2022-09-13T13:23:37;26.40;85.10
5899;DHT22;2975;50.956;6.962;2022-09-13T13:36:42;25.70;86.30
5899;DHT22;2975;50.956;6.962;2022-09-13T13:46:44;25.50;88.70
5899;DHT22;2975;50.956;6.962;2022-09-13T13:57:31;25.70;87.20
5899;DHT22;2975;50.956;6.962;2022-09-13T14:00:13;25.90;87.70
5899;DHT22;2975;50.956;6.962;2022-09-13T14:08:25;26.80;85.30
5899;DHT22;2975;50.956;6.962;2022-09-13T14:21:29;26.90;83.50
5899;DHT22;2975;50.956;6.962;2022-09-13T14:26:46;27.00;83.60
5899;DHT22;2975;50.956;6.962;2022-09-13T14:29:16;27.00;84.00
5899;DHT22;2975;50.956;6.962;2022-09-13T14:31:47;27.10;83.80
5899;DHT22;2975;50.956;6.962;2022-09-13T14:34:27;27.30;82.60
5899;DHT22;2975;50.956;6.962;2022-09-13T14:37:00;27.40;82.70
5899;DHT22;2975;50.956;6.962;2022-09-13T14:39:27;27.60;81.70
5899;DHT22;2975;50.956;6.962;2022-09-13T14:42:01;27.40;81.40
5899;DHT22;2975;50.956;6.962;2022-09-13T14:44:27;27.30;82.40
5899;DHT22;2975;50.956;6.962;2022-09-13T14:49:34;27.30;83.00
5899;DHT22;2975;50.956;6.962;2022-09-13T14:52:07;27.40;81.80
5899;DHT22;2975;50.956;6.962;2022-09-13T14:54:41;27.20;82.30
5899;DHT22;2975;50.956;6.962;2022-09-13T14:57:28;27.20;83.00
5899;DHT22;2975;50.956;6.962;2022-09-13T15:00:05;27.20;83.30
5899;DHT22;2975;50.956;6.962;2022-09-13T15:02:37;27.30;82.50
5899;DHT22;2975;50.956;6.962;2022-09-13T15:05:06;27.20;83.00
5899;DHT22;2975;50.956;6.962;2022-09-13T15:07:37;27.00;83.60
5899;DHT22;2975;50.956;6.962;2022-09-13T15:20:59;26.70;83.80
5899;DHT22;2975;50.956;6.962;2022-09-13T15:23:36;26.60;84.40
5899;DHT22;2975;50.956;6.962;2022-09-13T15:26:20;26.50;85.00
5899;DHT22;2975;50.956;6.962;2022-09-13T15:28:54;26.40;85.20
5899;DHT22;2975;50.956;6.962;2022-09-13T15:31:31;26.30;85.60
5899;DHT22;2975;50.956;6.962;2022-09-13T15:36:45;26.00;86.30
5899;DHT22;2975;50.956;6.962;2022-09-13T15:41:59;26.00;87.00
5899;DHT22;2975;50.956;6.962;2022-09-13T15:44:26;26.00;87.60
5899;DHT22;2975;50.956;6.962;2022-09-13T15:46:56;26.00;87.60
5899;DHT22;2975;50.956;6.962;2022-09-13T15:49:26;26.10;87.10
5899;DHT22;2975;50.956;6.962;2022-09-13T15:51:55;26.00;87.50
5899;DHT22;2975;50.956;6.962;2022-09-13T15:54:21;26.00;88.20
5899;DHT22;2975;50.956;6.962;2022-09-13T15:56:48;26.10;88.30
5899;DHT22;2975;50.956;6.962;2022-09-13T15:59:18;25.90;88.90
5899;DHT22;2975;50.956;6.962;2022-09-13T16:01:44;25.90;89.70
5899;DHT22;2975;50.956;6.962;2022-09-13T16:04:12;25.90;89.40
5899;DHT22;2975;50.956;6.962;2022-09-13T16:06:38;25.80;89.80
5899;DHT22;2975;50.956;6.962;2022-09-13T16:09:19;25.70;90.10
5899;DHT22;2975;50.956;6.962;2022-09-13T16:11:46;25.60;90.30
5899;DHT22;2975;50.956;6.962;2022-09-13T16:14:12;25.40;90.30
5899;DHT22;2975;50.956;6.962;2022-09-13T16:16:38;25.40;90.60
5899;DHT22;2975;50.956;6.962;2022-09-13T16:19:04;25.30;90.70
5899;DHT22;2975;50.956;6.962;2022-09-13T16:21:30;25.30;90.70
5899;DHT22;2975;50.956;6.962;2022-09-13T16:23:55;25.20;90.80
5899;DHT22;2975;50.956;6.962;2022-09-13T16:26:21;25.20;91.00
5899;DHT22;2975;50.956;6.962;2022-09-13T16:28:47;25.10;91.10
5899;DHT22;2975;50.956;6.962;2022-09-13T16:31:12;25.10;91.30
5899;DHT22;2975;50.956;6.962;2022-09-13T16:33:41;25.00;91.50
5899;DHT22;2975;50.956;6.962;2022-09-13T16:36:10;24.90;91.50
5899;DHT22;2975;50.956;6.962;2022-09-13T16:38:36;24.90;91.50
5899;DHT22;2975;50.956;6.962;2022-09-13T16:41:05;24.80;91.50
5899;DHT22;2975;50.956;6.962;2022-09-13T16:43:31;24.70;91.60
5899;DHT22;2975;50.956;6.962;2022-09-13T16:45:58;24.60;91.80
5899;DHT22;2975;50.956;6.962;2022-09-13T16:48:24;24.60;92.00
5899;DHT22;2975;50.956;6.962;2022-09-13T16:50:50;24.50;92.20
5899;DHT22;2975;50.956;6.962;2022-09-13T16:53:16;24.50;92.00
5899;DHT22;2975;50.956;6.962;2022-09-13T16:55:42;24.40;92.10
5899;DHT22;2975;50.956;6.962;2022-09-13T16:58:10;24.40;92.60
5899;DHT22;2975;50.956;6.962;2022-09-13T17:00:35;24.30;93.20
5899;DHT22;2975;50.956;6.962;2022-09-13T17:03:01;24.20;93.40
5899;DHT22;2975;50.956;6.962;2022-09-13T17:05:27;24.20;93.50
5899;DHT22;2975;50.956;6.962;2022-09-13T17:07:52;24.10;94.00
5899;DHT22;2975;50.956;6.962;2022-09-13T17:10:19;24.00;94.30
5899;DHT22;2975;50.956;6.962;2022-09-13T17:12:45;24.00;94.60
5899;DHT22;2975;50.956;6.962;2022-09-13T17:15:10;23.90;95.30
5899;DHT22;2975;50.956;6.962;2022-09-13T17:17:36;23.80;96.10
5899;DHT22;2975;50.956;6.962;2022-09-13T17:20:04;23.80;96.60
5899;DHT22;2975;50.956;6.962;2022-09-13T17:22:32;23.70;96.80
5899;DHT22;2975;50.956;6.962;2022-09-13T17:24:58;23.60;97.20
5899;DHT22;2975;50.956;6.962;2022-09-13T17:27:25;23.60;97.50
5899;DHT22;2975;50.956;6.962;2022-09-13T17:29:51;23.50;97.80
5899;DHT22;2975;50.956;6.962;2022-09-13T17:32:18;23.50;98.10
5899;DHT22;2975;50.956;6.962;2022-09-13T17:34:43;23.40;98.30
5899;DHT22;2975;50.956;6.962;2022-09-13T17:37:09;23.30;98.80
5899;DHT22;2975;50.956;6.962;2022-09-13T17:39:35;23.30;99.40
5899;DHT22;2975;50.956;6.962;2022-09-13T17:42:00;23.20;99.70
5899;DHT22;2975;50.956;6.962;2022-09-13T17:44:26;23.10;99.90
5899;DHT22;2975;50.956;6.962;2022-09-13T17:46:52;23.10;99.90
5899;DHT22;2975;50.956;6.962;2022-09-13T17:49:17;23.00;99.90
5899;DHT22;2975;50.956;6.962;2022-09-13T17:51:43;22.90;99.90
5899;DHT22;2975;50.956;6.962;2022-09-13T17:54:10;22.80;99.90
5899;DHT22;2975;50.956;6.962;2022-09-13T17:56:41;22.70;99.90
5899;DHT22;2975;50.956;6.962;2022-09-13T17:59:15;22.60;99.90
5899;DHT22;2975;50.956;6.962;2022-09-13T18:01:51;22.50;99.90
5899;DHT22;2975;50.956;6.962;2022-09-13T18:04:19;22.40;99.90
5899;DHT22;2975;50.956;6.962;2022-09-13T18:06:46;22.30;99.90
5899;DHT22;2975;50.956;6.962;2022-09-13T18:09:13;22.20;99.90
5899;DHT22;2975;50.956;6.962;2022-09-13T18:11:39;22.10;99.90
5899;DHT22;2975;50.956;6.962;2022-09-13T18:14:06;22.00;99.90
5899;DHT22;2975;50.956;6.962;2022-09-13T18:16:32;22.00;99.90
5899;DHT22;2975;50.956;6.962;2022-09-13T18:18:59;21.90;99.90
5899;DHT22;2975;50.956;6.962;2022-09-13T18:21:25;21.90;99.90
5899;DHT22;2975;50.956;6.962;2022-09-13T18:23:53;21.90;99.90
5899;DHT22;2975;50.956;6.962;2022-09-13T18:26:21;21.80;99.90
5899;DHT22;2975;50.956;6.962;2022-09-13T18:28:58;21.80;99.90
5899;DHT22;2975;50.956;6.962;2022-09-13T18:31:26;21.70;99.90
5899;DHT22;2975;50.956;6.962;2022-09-13T18:33:54;21.50;99.90
5899;DHT22;2975;50.956;6.962;2022-09-13T18:36:21;21.50;99.90
5899;DHT22;2975;50.956;6.962;2022-09-13T18:38:48;21.40;99.90
5899;DHT22;2975;50.956;6.962;2022-09-13T18:43:42;21.30;99.90
5899;DHT22;2975;50.956;6.962;2022-09-13T18:46:13;21.30;99.90
5899;DHT22;2975;50.956;6.962;2022-09-13T18:48:44;21.20;99.90
5899;DHT22;2975;50.956;6.962;2022-09-13T18:51:15;21.20;99.90
5899;DHT22;2975;50.956;6.962;2022-09-13T18:53:41;21.20;99.90
5899;DHT22;2975;50.956;6.962;2022-09-13T18:56:09;21.10;99.90
5899;DHT22;2975;50.956;6.962;2022-09-13T18:58:37;21.10;99.90
5899;DHT22;2975;50.956;6.962;2022-09-13T19:01:09;21.00;99.90
5899;DHT22;2975;50.956;6.962;2022-09-13T19:03:36;20.90;99.90
5899;DHT22;2975;50.956;6.962;2022-09-13T19:08:38;20.90;99.90
5899;DHT22;2975;50.956;6.962;2022-09-13T19:11:04;20.90;99.90
5899;DHT22;2975;50.956;6.962;2022-09-13T19:13:31;20.80;99.90
5899;DHT22;2975;50.956;6.962;2022-09-13T19:16:01;20.80;99.90
5899;DHT22;2975;50.956;6.962;2022-09-13T19:18:28;20.60;99.90
5899;DHT22;2975;50.956;6.962;2022-09-13T19:21:02;20.60;99.90
5899;DHT22;2975;50.956;6.962;2022-09-13T19:23:28;20.50;99.90
5899;DHT22;2975;50.956;6.962;2022-09-13T19:25:53;20.40;99.90
5899;DHT22;2975;50.956;6.962;2022-09-13T19:28:19;20.30;99.90
5899;DHT22;2975;50.956;6.962;2022-09-13T19:30:44;20.20;99.90
5899;DHT22;2975;50.956;6.962;2022-09-13T19:33:14;20.20;99.90
5899;DHT22;2975;50.956;6.962;2022-09-13T19:35:40;20.10;99.90
5899;DHT22;2975;50.956;6.962;2022-09-13T19:38:05;20.10;99.90
5899;DHT22;2975;50.956;6.962;2022-09-13T19:40:31;20.00;99.90
5899;DHT22;2975;50.956;6.962;2022-09-13T19:42:58;20.00;99.90
5899;DHT22;2975;50.956;6.962;2022-09-13T19:45:24;19.90;99.90
5899;DHT22;2975;50.956;6.962;2022-09-13T19:47:50;19.90;99.90
5899;DHT22;2975;50.956;6.962;2022-09-13T19:50:16;19.90;99.90
5899;DHT22;2975;50.956;6.962;2022-09-13T19:52:41;19.90;99.90
5899;DHT22;2975;50.956;6.962;2022-09-13T19:55:08;19.80;99.90
5899;DHT22;2975;50.956;6.962;2022-09-13T19:57:34;19.80;99.90
5899;DHT22;2975;50.956;6.962;2022-09-13T19:59:59;19.80;99.90
5899;DHT22;2975;50.956;6.962;2022-09-13T20:02:25;19.80;99.90
5899;DHT22;2975;50.956;6.962;2022-09-13T20:04:51;19.80;99.90
5899;DHT22;2975;50.956;6.962;2022-09-13T20:07:17;19.70;99.90
5899;DHT22;2975;50.956;6.962;2022-09-13T20:09:42;19.70;99.90
5899;DHT22;2975;50.956;6.962;2022-09-13T20:12:12;19.70;99.90